EndleSS Dreams — WDB2165 — position and weather

sailwx.info

Track history (hours):
 
Tides and Currents Weather Stations Pressure Air Temp Water Temp Dewpoint Dewpoint Depression Visibility Wind Speed Wind Dir Waves Ship Positions

EndleSS Dreams

Owner: Charter Memories, Newport Beach, CA. More information available from US FCC via Universal Licensing System and Coast Guard Vessel Documentation Center.

Last reported at 2018-Jul-23 13:30 UTC. Time now 2018-Jul-23 13:53 UTC.
Position N 33°46' W 118°12'.

Length 47 m; draft 3 m.

Type: Ship (hazmat cat D). MMSI: 366872980.

Date/timePositionNaut miles runAvg speedWind from/ knotsBaromVisibWave heightAir tempDewpointWater temp
2018-Jul-23 13:30N 33°46' W 118°12'0 0.0
2018-Jul-23 13:00N 33°46' W 118°12'0 0.0
2018-Jul-23 12:30N 33°46' W 118°12'0 0.0
2018-Jul-23 12:00N 33°46' W 118°12'0 0.0
2018-Jul-23 11:30N 33°46' W 118°12'0 0.0
2018-Jul-23 11:00N 33°46' W 118°12'0 0.0
2018-Jul-23 10:30N 33°46' W 118°12'0 0.0
2018-Jul-23 10:00N 33°46' W 118°12'0 0.0
2018-Jul-23 09:30N 33°46' W 118°12'0 0.0
2018-Jul-23 09:00N 33°46' W 118°12'0 0.0
2018-Jul-23 08:30N 33°46' W 118°12'0 0.0
2018-Jul-23 08:00N 33°46' W 118°12'0 0.0
2018-Jul-23 07:30N 33°46' W 118°12'0 0.0
2018-Jul-23 07:00N 33°46' W 118°12'0 0.0
2018-Jul-23 06:30N 33°46' W 118°12'0 0.0
2018-Jul-23 06:00N 33°46' W 118°12'0 0.0
2018-Jul-23 05:30N 33°46' W 118°12'0 0.0
2018-Jul-23 05:00N 33°46' W 118°12'0 0.0
2018-Jul-23 04:30N 33°46' W 118°12'0 0.3
2018-Jul-23 04:00N 33°46' W 118°12'0 0.8
2018-Jul-23 03:30N 33°45' W 118°11'2 3.3
2018-Jul-23 03:00N 33°45' W 118°09'3 5.0
2018-Jul-23 02:30N 33°44' W 118°12'2 4.4
2018-Jul-23 02:00N 33°45' W 118°10'1 2.5
2018-Jul-23 01:30N 33°46' W 118°12'0 0.0
2018-Jul-23 01:00N 33°46' W 118°12'0 0.0
2018-Jul-23 00:30N 33°46' W 118°12'0 0.0
2018-Jul-23 00:00N 33°46' W 118°12'0 0.0
2018-Jul-22 23:30N 33°46' W 118°12'0 0.0
2018-Jul-22 23:00N 33°46' W 118°12'0 0.0
2018-Jul-22 22:30N 33°46' W 118°12'0 0.0
2018-Jul-22 22:00N 33°46' W 118°12'0 0.0
2018-Jul-22 21:30N 33°46' W 118°12'0 0.0
2018-Jul-22 21:00N 33°46' W 118°12'0 0.0
2018-Jul-22 20:30N 33°46' W 118°12'0 0.0
2018-Jul-22 20:00N 33°46' W 118°12'0 0.0
2018-Jul-22 19:30N 33°46' W 118°12'0 0.0
2018-Jul-22 19:00N 33°46' W 118°12'0 0.0
2018-Jul-22 18:30N 33°46' W 118°12'0 0.0
2018-Jul-22 18:00N 33°46' W 118°12'0 0.0
2018-Jul-22 17:30N 33°46' W 118°12'0 0.0
2018-Jul-22 17:00N 33°46' W 118°12'1 2.2
2018-Jul-22 16:30N 33°45' W 118°10'4 8.9
2018-Jul-22 16:00N 33°42' W 118°06'9 8.6
2018-Jul-22 15:00N 33°37' W 117°58'4 8.6
2018-Jul-22 14:30N 33°35' W 117°54'2 3.2
2018-Jul-22 14:00N 33°36' W 117°54'1 2.5
2018-Jul-22 13:30N 33°37' W 117°55'0 0.0
2018-Jul-22 13:00N 33°37' W 117°55'0 0.0
2018-Jul-22 12:30N 33°37' W 117°55'0 0.0
2018-Jul-22 12:00N 33°37' W 117°55'0 0.0
2018-Jul-22 11:30N 33°37' W 117°55'0 0.0
2018-Jul-22 11:00N 33°37' W 117°55'0 0.0
2018-Jul-22 10:30N 33°37' W 117°55'0 0.0
2018-Jul-22 10:00N 33°37' W 117°55'0 0.0
2018-Jul-22 09:30N 33°37' W 117°55'0 0.0
2018-Jul-22 09:00N 33°37' W 117°55'0 0.0
2018-Jul-22 08:30N 33°37' W 117°55'0 0.0
2018-Jul-22 08:00N 33°37' W 117°55'0 0.0
2018-Jul-22 07:30N 33°37' W 117°55'0 0.0
2018-Jul-22 07:00N 33°37' W 117°55'0 0.0
2018-Jul-22 06:30N 33°37' W 117°55'0 0.0
2018-Jul-22 06:00N 33°37' W 117°55'0 0.6
2018-Jul-22 05:30N 33°37' W 117°55'1 1.1
2018-Jul-22 05:00N 33°37' W 117°56'2 3.1
2018-Jul-22 04:30N 33°36' W 117°54'1 2.3
2018-Jul-22 04:00N 33°36' W 117°53'1 2.7
2018-Jul-22 03:29N 33°37' W 117°54'1 1.8
2018-Jul-22 02:53N 33°37' W 117°55'1 3.9
2018-Jul-22 02:30N 33°36' W 117°54'1 1.8
2018-Jul-22 02:00N 33°36' W 117°53'2 4.0
2018-Jul-22 01:30N 33°37' W 117°55'0 0.7
2018-Jul-22 01:00N 33°37' W 117°55'0 0.0
2018-Jul-22 00:30N 33°37' W 117°55'0 0.0
2018-Jul-22 00:00N 33°37' W 117°55'0 0.0
2018-Jul-21 23:30N 33°37' W 117°55'0 0.0
2018-Jul-21 23:00N 33°37' W 117°55'0 0.0
2018-Jul-21 22:30N 33°37' W 117°55'0 0.0
2018-Jul-21 22:00N 33°37' W 117°55'0 0.0
2018-Jul-21 21:30N 33°37' W 117°55'0 0.0
2018-Jul-21 21:00N 33°37' W 117°55'0 1.0
2018-Jul-21 20:30N 33°37' W 117°55'2 2.8
2018-Jul-21 19:49N 33°36' W 117°53'2 3.6
2018-Jul-21 19:16N 33°37' W 117°55'0 1.7
2018-Jul-21 19:00N 33°37' W 117°55'0 0.0
2018-Jul-21 18:30N 33°37' W 117°55'0 0.0
2018-Jul-21 18:00N 33°37' W 117°55'0 0.0
2018-Jul-21 17:30N 33°37' W 117°55'0 0.0
2018-Jul-21 17:00N 33°37' W 117°55'0 0.0
2018-Jul-21 16:30N 33°37' W 117°55'0 0.0
2018-Jul-21 16:00N 33°37' W 117°55'0 0.0
2018-Jul-21 15:30N 33°37' W 117°55'0 0.0
2018-Jul-21 15:00N 33°37' W 117°55'0 0.0
2018-Jul-21 14:30N 33°37' W 117°55'0 0.0
2018-Jul-21 13:30N 33°37' W 117°55'0 0.0
2018-Jul-21 13:00N 33°37' W 117°55'0 0.0
2018-Jul-21 12:30N 33°37' W 117°55'0 0.0
2018-Jul-21 12:00N 33°37' W 117°55'0 0.0
2018-Jul-21 11:30N 33°37' W 117°55'0 0.0
2018-Jul-21 11:00N 33°37' W 117°55'0 0.0
2018-Jul-21 10:30N 33°37' W 117°55'0 0.0
2018-Jul-21 10:00N 33°37' W 117°55'0 0.0
2018-Jul-21 09:30N 33°37' W 117°55'0 0.0
2018-Jul-21 09:00N 33°37' W 117°55'0 0.0
2018-Jul-21 08:30N 33°37' W 117°55'0 0.0
2018-Jul-21 08:00N 33°37' W 117°55'0 0.0
2018-Jul-21 07:30N 33°37' W 117°55'0 0.0
2018-Jul-21 07:00N 33°37' W 117°55'0 0.0
2018-Jul-21 06:31N 33°37' W 117°55'0 0.0
2018-Jul-21 06:00N 33°37' W 117°55'0 0.1
2018-Jul-21 05:28N 33°37' W 117°55'1 2.3
2018-Jul-21 05:00N 33°37' W 117°54'0 0.3
2018-Jul-21 04:30N 33°37' W 117°54'1 1.5
2018-Jul-21 03:52N 33°36' W 117°53'0 1.3
2018-Jul-21 03:30N 33°36' W 117°53'1 1.4
2018-Jul-21 03:00N 33°36' W 117°54'2 3.4
2018-Jul-21 02:30N 33°37' W 117°55'0 0.0
2018-Jul-21 02:01N 33°37' W 117°55'0 0.0
2018-Jul-21 01:30N 33°37' W 117°55'0 0.0
2018-Jul-21 01:00N 33°37' W 117°55'0 0.0
2018-Jul-21 00:31N 33°37' W 117°55'0 0.0
2018-Jul-21 00:00N 33°37' W 117°55'0 0.0
2018-Jul-20 23:30N 33°37' W 117°55'0 0.0
2018-Jul-20 23:00N 33°37' W 117°55'0 0.0
2018-Jul-20 22:30N 33°37' W 117°55'0 0.0
2018-Jul-20 22:00N 33°37' W 117°55'0 0.0
2018-Jul-20 21:30N 33°37' W 117°55'0 0.0
2018-Jul-20 21:00N 33°37' W 117°55'0 0.0
2018-Jul-20 20:30N 33°37' W 117°55'0 0.0
2018-Jul-20 20:00N 33°37' W 117°55'0 0.0
2018-Jul-20 19:30N 33°37' W 117°55'0 0.0
2018-Jul-20 19:00N 33°37' W 117°55'0 0.0
2018-Jul-20 18:30N 33°37' W 117°55'0 0.0
2018-Jul-20 18:00N 33°37' W 117°55'0 0.0
2018-Jul-20 17:30N 33°37' W 117°55'0 0.0
2018-Jul-20 17:00N 33°37' W 117°55'0 0.0
2018-Jul-20 16:30N 33°37' W 117°55'0 0.0
2018-Jul-20 16:00N 33°37' W 117°55'0 0.0
2018-Jul-20 15:30N 33°37' W 117°55'0 0.0
2018-Jul-20 15:00N 33°37' W 117°55'0 0.0
2018-Jul-20 14:30N 33°37' W 117°55'0 0.0
2018-Jul-20 14:00N 33°37' W 117°55'0 0.0
2018-Jul-20 13:30N 33°37' W 117°55'0 0.0
2018-Jul-20 13:00N 33°37' W 117°55'0 0.0
2018-Jul-20 12:30N 33°37' W 117°55'0 0.0
2018-Jul-20 11:59N 33°37' W 117°55'0 0.0
2018-Jul-20 11:28N 33°37' W 117°55'0 0.0
2018-Jul-20 11:00N 33°37' W 117°55'0 0.0
2018-Jul-20 10:30N 33°37' W 117°55'0 0.0
2018-Jul-20 10:00N 33°37' W 117°55'0 0.0
2018-Jul-20 09:30N 33°37' W 117°55'0 0.0
2018-Jul-20 09:00N 33°37' W 117°55'0 0.0
2018-Jul-20 08:30N 33°37' W 117°55'0 0.0
2018-Jul-20 08:00N 33°37' W 117°55'0 0.0
2018-Jul-20 07:30N 33°37' W 117°55'0 0.0
2018-Jul-20 07:00N 33°37' W 117°55'0 0.0
2018-Jul-20 06:30N 33°37' W 117°55'0 0.0
2018-Jul-20 06:00N 33°37' W 117°55'0 0.0
2018-Jul-20 05:30N 33°37' W 117°55'0 0.0
2018-Jul-20 04:59N 33°37' W 117°55'0 0.0
2018-Jul-20 04:30N 33°37' W 117°55'0 0.0
2018-Jul-20 04:00N 33°37' W 117°55'0 0.0
2018-Jul-20 03:29N 33°37' W 117°55'0 0.0
2018-Jul-20 02:59N 33°37' W 117°55'2 2.8
2018-Jul-20 02:07N 33°36' W 117°53'0 3.2
2018-Jul-20 02:00N 33°36' W 117°53'2 2.9
2018-Jul-20 01:25N 33°37' W 117°54'1 2.4
2018-Jul-20 01:00N 33°37' W 117°55'0 0.0
2018-Jul-20 00:30N 33°37' W 117°55'0 0.0
2018-Jul-19 23:59N 33°37' W 117°55'0 0.0
2018-Jul-19 23:30N 33°37' W 117°55'0 0.0
2018-Jul-19 23:00N 33°37' W 117°55'0 0.0
2018-Jul-19 22:30N 33°37' W 117°55'0 0.0
2018-Jul-19 22:00N 33°37' W 117°55'0 0.0
2018-Jul-19 21:30N 33°37' W 117°55'0 0.0
2018-Jul-19 21:00N 33°37' W 117°55'0 0.0
2018-Jul-19 20:30N 33°37' W 117°55'0 0.0
2018-Jul-19 20:00N 33°37' W 117°55'0 0.0
2018-Jul-19 19:30N 33°37' W 117°55'0 0.0
2018-Jul-19 19:00N 33°37' W 117°55'0 0.0
2018-Jul-19 18:28N 33°37' W 117°55'0 0.0
2018-Jul-19 17:59N 33°37' W 117°55'0 0.0
2018-Jul-19 17:30N 33°37' W 117°55'0 0.0
2018-Jul-19 17:00N 33°37' W 117°55'0 0.0
2018-Jul-19 16:31N 33°37' W 117°55'0 0.0
2018-Jul-19 15:58N 33°37' W 117°55'0 0.0
2018-Jul-19 15:30N 33°37' W 117°55'0 0.0
2018-Jul-19 15:00N 33°37' W 117°55'0 0.0
2018-Jul-19 14:00N 33°37' W 117°55'0 0.0
2018-Jul-19 13:29N 33°37' W 117°55'0 0.0
2018-Jul-19 13:00N 33°37' W 117°55'0 0.0
2018-Jul-19 12:30N 33°37' W 117°55'0 0.0
2018-Jul-19 12:00N 33°37' W 117°55'0 0.0
2018-Jul-19 11:30N 33°37' W 117°55'0 0.0
2018-Jul-19 11:00N 33°37' W 117°55'0 0.0
2018-Jul-19 10:30N 33°37' W 117°55'0 0.0
2018-Jul-19 10:00N 33°37' W 117°55'0 0.0
2018-Jul-19 09:30N 33°37' W 117°55'0 0.0
2018-Jul-19 09:00N 33°37' W 117°55'0 0.0
2018-Jul-19 08:30N 33°37' W 117°55'0 0.0
2018-Jul-19 08:00N 33°37' W 117°55'0 0.0
2018-Jul-19 07:30N 33°37' W 117°55'0 0.0
2018-Jul-19 07:00N 33°37' W 117°55'0 0.0
2018-Jul-19 06:29N 33°37' W 117°55'0 0.0
2018-Jul-19 06:00N 33°37' W 117°55'0 0.0
2018-Jul-19 05:30N 33°37' W 117°55'0 0.0
2018-Jul-19 05:00N 33°37' W 117°55'0 0.0
2018-Jul-19 04:29N 33°37' W 117°55'0 0.0
2018-Jul-19 03:59N 33°37' W 117°55'0 0.0
2018-Jul-19 03:26N 33°37' W 117°55'0 0.0
2018-Jul-19 03:00N 33°37' W 117°55'0 0.0
2018-Jul-19 02:30N 33°37' W 117°55'0 0.0
2018-Jul-19 02:00N 33°37' W 117°55'0 0.0
2018-Jul-19 01:30N 33°37' W 117°55'0 0.0
2018-Jul-19 01:00N 33°37' W 117°55'0 0.0
2018-Jul-19 00:30N 33°37' W 117°55'0 0.0
2018-Jul-19 00:00N 33°37' W 117°55'0 0.0
2018-Jul-18 23:30N 33°37' W 117°55'0 0.0
2018-Jul-18 23:00N 33°37' W 117°55'0 0.0
2018-Jul-18 22:30N 33°37' W 117°55'0 0.0
2018-Jul-18 22:00N 33°37' W 117°55'0 0.0
2018-Jul-18 21:30N 33°37' W 117°55'0 0.0
2018-Jul-18 21:00N 33°37' W 117°55'0 0.0
2018-Jul-18 20:30N 33°37' W 117°55'0 0.0
2018-Jul-18 20:00N 33°37' W 117°55'0 0.0
2018-Jul-18 19:30N 33°37' W 117°55'0 0.0
2018-Jul-18 19:00N 33°37' W 117°55'0 0.0
2018-Jul-18 18:30N 33°37' W 117°55'0 0.0
2018-Jul-18 17:59N 33°37' W 117°55'0 0.0
2018-Jul-18 17:30N 33°37' W 117°55'0 0.0
2018-Jul-18 17:00N 33°37' W 117°55'0 0.0
2018-Jul-18 16:30N 33°37' W 117°55'0 0.0
2018-Jul-18 16:00N 33°37' W 117°55'0 0.0
2018-Jul-18 15:30N 33°37' W 117°55'0 0.0
2018-Jul-18 15:00N 33°37' W 117°55'0 0.0
2018-Jul-18 14:30N 33°37' W 117°55'0 0.0
2018-Jul-18 13:30N 33°37' W 117°55'0 0.0
2018-Jul-18 13:00N 33°37' W 117°55'0 0.0
2018-Jul-18 12:30N 33°37' W 117°55'0 0.0
2018-Jul-18 12:00N 33°37' W 117°55'0 0.0
2018-Jul-18 11:30N 33°37' W 117°55'0 0.0
2018-Jul-18 10:30N 33°37' W 117°55'0 0.0
2018-Jul-18 10:00N 33°37' W 117°55'0 0.0
2018-Jul-18 09:30N 33°37' W 117°55'0 0.0
2018-Jul-18 09:00N 33°37' W 117°55'0 0.0
2018-Jul-18 08:30N 33°37' W 117°55'0 0.0
2018-Jul-18 08:00N 33°37' W 117°55'0 0.0
2018-Jul-18 07:29N 33°37' W 117°55'0 0.0
2018-Jul-18 07:00N 33°37' W 117°55'0 0.0
2018-Jul-18 06:30N 33°37' W 117°55'0 0.0
2018-Jul-18 06:00N 33°37' W 117°55'0 0.0
2018-Jul-18 05:30N 33°37' W 117°55'0 0.0
2018-Jul-18 05:00N 33°37' W 117°55'0 0.0
2018-Jul-18 04:29N 33°37' W 117°55'0 0.0
2018-Jul-18 04:00N 33°37' W 117°55'0 0.0
2018-Jul-18 03:30N 33°37' W 117°55'0 0.0
2018-Jul-18 03:00N 33°37' W 117°55'0 0.0
2018-Jul-18 02:30N 33°37' W 117°55'0 0.0
2018-Jul-18 02:00N 33°37' W 117°55'0 0.0
2018-Jul-18 01:30N 33°37' W 117°55'0 0.0
2018-Jul-18 00:59N 33°37' W 117°55'0 0.0
2018-Jul-18 00:30N 33°37' W 117°55'0 0.0
2018-Jul-18 00:00N 33°37' W 117°55'0 0.0
2018-Jul-17 23:30N 33°37' W 117°55'0 0.0
2018-Jul-17 23:00N 33°37' W 117°55'0 0.0
2018-Jul-17 22:30N 33°37' W 117°55'0 0.0
2018-Jul-17 22:00N 33°37' W 117°55'0 0.0
2018-Jul-17 21:27N 33°37' W 117°55'0 0.0
2018-Jul-17 21:00N 33°37' W 117°55'0 0.0
2018-Jul-17 20:30N 33°37' W 117°55'0 0.0
2018-Jul-17 20:00N 33°37' W 117°55'0 0.0
2018-Jul-17 19:30N 33°37' W 117°55'0 0.0
2018-Jul-17 19:00N 33°37' W 117°55'0 0.0
2018-Jul-17 18:30N 33°37' W 117°55'0 0.0
2018-Jul-17 18:00N 33°37' W 117°55'0 0.0
2018-Jul-17 17:29N 33°37' W 117°55'0 0.0
2018-Jul-17 17:00N 33°37' W 117°55'0 0.0
2018-Jul-17 16:30N 33°37' W 117°55'0 0.0
2018-Jul-17 16:00N 33°37' W 117°55'0 0.0
2018-Jul-17 15:28N 33°37' W 117°55'0 0.0
2018-Jul-17 15:00N 33°37' W 117°55'0 0.0
2018-Jul-17 14:30N 33°37' W 117°55'0 0.0
2018-Jul-17 14:00N 33°37' W 117°55'0 0.0
2018-Jul-17 13:30N 33°37' W 117°55'0 0.0
2018-Jul-17 13:00N 33°37' W 117°55'0 0.0
2018-Jul-17 12:30N 33°37' W 117°55'0 0.0
2018-Jul-17 12:00N 33°37' W 117°55'0 0.0
2018-Jul-17 11:30N 33°37' W 117°55'0 0.0
2018-Jul-17 11:00N 33°37' W 117°55'0 0.0
2018-Jul-17 10:30N 33°37' W 117°55'0 0.0
2018-Jul-17 10:00N 33°37' W 117°55'0 0.0
2018-Jul-17 09:30N 33°37' W 117°55'0 0.0
2018-Jul-17 09:00N 33°37' W 117°55'0 0.0
2018-Jul-17 08:30N 33°37' W 117°55'0 0.0
2018-Jul-17 08:00N 33°37' W 117°55'0 0.0
2018-Jul-17 07:30N 33°37' W 117°55'0 0.0
2018-Jul-17 07:00N 33°37' W 117°55'0 0.0
2018-Jul-17 06:30N 33°37' W 117°55'0 0.0
2018-Jul-17 06:00N 33°37' W 117°55'0 0.0
2018-Jul-17 05:30N 33°37' W 117°55'0 0.0
2018-Jul-17 05:00N 33°37' W 117°55'0 0.0
2018-Jul-17 04:30N 33°37' W 117°55'0 0.0
2018-Jul-17 04:00N 33°37' W 117°55'0 0.0
2018-Jul-17 03:30N 33°37' W 117°55'0 0.0
2018-Jul-17 03:00N 33°37' W 117°55'0 0.0
2018-Jul-17 02:30N 33°37' W 117°55'0 0.0
2018-Jul-17 01:59N 33°37' W 117°55'0 0.0
2018-Jul-17 01:30N 33°37' W 117°55'0 0.0
2018-Jul-17 01:00N 33°37' W 117°55'0 0.0
2018-Jul-17 00:30N 33°37' W 117°55'0 0.0
2018-Jul-16 23:29N 33°37' W 117°55'0 0.0
2018-Jul-16 23:00N 33°37' W 117°55'0 0.0
2018-Jul-16 22:30N 33°37' W 117°55'0 0.0
2018-Jul-16 22:00N 33°37' W 117°55'0 0.0
2018-Jul-16 21:30N 33°37' W 117°55'0 0.0
2018-Jul-16 21:00N 33°37' W 117°55'0 0.0
2018-Jul-16 20:30N 33°37' W 117°55'0 0.0
2018-Jul-16 19:58N 33°37' W 117°55'0 0.0
2018-Jul-16 19:30N 33°37' W 117°55'0 0.0
2018-Jul-16 19:00N 33°37' W 117°55'0 0.0
2018-Jul-16 18:30N 33°37' W 117°55'0 0.0
2018-Jul-16 16:27N 33°37' W 117°55'0 0.0
2018-Jul-16 16:00N 33°37' W 117°55'0 0.0
2018-Jul-16 15:30N 33°37' W 117°55'0 0.0
2018-Jul-16 15:00N 33°37' W 117°55'0 0.0
2018-Jul-16 14:30N 33°37' W 117°55'0 0.0
2018-Jul-16 14:00N 33°37' W 117°55'0 0.0
2018-Jul-16 13:30N 33°37' W 117°55'0 0.0
2018-Jul-16 13:00N 33°37' W 117°55'0 0.0
2018-Jul-16 12:30N 33°37' W 117°55'0 0.0
2018-Jul-16 12:00N 33°37' W 117°55'0 0.0
2018-Jul-16 11:30N 33°37' W 117°55'0 0.0
2018-Jul-16 11:00N 33°37' W 117°55'0 0.0
2018-Jul-16 10:31N 33°37' W 117°55'0 0.0
2018-Jul-16 10:00N 33°37' W 117°55'0 0.0
2018-Jul-16 09:30N 33°37' W 117°55'0 0.0
2018-Jul-16 09:00N 33°37' W 117°55'0 0.0
2018-Jul-16 08:29N 33°37' W 117°55'0 0.0
2018-Jul-16 08:00N 33°37' W 117°55'0 0.0
2018-Jul-16 07:30N 33°37' W 117°55'0 0.0
2018-Jul-16 07:00N 33°37' W 117°55'0 0.0
2018-Jul-16 06:28N 33°37' W 117°55'0 0.0
2018-Jul-16 06:00N 33°37' W 117°55'0 0.0
2018-Jul-16 05:30N 33°37' W 117°55'0 0.0
2018-Jul-16 05:00N 33°37' W 117°55'0 0.0
2018-Jul-16 04:30N 33°37' W 117°55'0 0.0
2018-Jul-16 04:00N 33°37' W 117°55'0 0.0
2018-Jul-16 03:30N 33°37' W 117°55'0 0.0
2018-Jul-16 03:01N 33°37' W 117°55'0 0.0
2018-Jul-16 02:30N 33°37' W 117°55'0 0.0
2018-Jul-16 02:00N 33°37' W 117°55'0 0.0
2018-Jul-16 01:30N 33°37' W 117°55'0 0.0
2018-Jul-16 01:00N 33°37' W 117°55'0 0.0
2018-Jul-16 00:30N 33°37' W 117°55'0 0.0
2018-Jul-16 00:00N 33°37' W 117°55'0 0.0
2018-Jul-15 23:30N 33°37' W 117°55'0 0.0
2018-Jul-15 23:00N 33°37' W 117°55'0 0.0
2018-Jul-15 22:30N 33°37' W 117°55'0 0.0
2018-Jul-15 22:00N 33°37' W 117°55'0 0.0
2018-Jul-15 21:30N 33°37' W 117°55'0 0.0
2018-Jul-15 21:00N 33°37' W 117°55'0 0.7
2018-Jul-15 20:30N 33°37' W 117°55'2 2.1
2018-Jul-15 19:40N 33°36' W 117°53'1 3.6
2018-Jul-15 19:29N 33°36' W 117°54'1 2.6
2018-Jul-15 18:58N 33°37' W 117°55'0 0.0
2018-Jul-15 18:30N 33°37' W 117°55'0 0.0
2018-Jul-15 17:59N 33°37' W 117°55'0 0.0
2018-Jul-15 17:30N 33°37' W 117°55'0 0.0
2018-Jul-15 17:00N 33°37' W 117°55'0 0.0
2018-Jul-15 16:27N 33°37' W 117°55'0 0.0
2018-Jul-15 16:00N 33°37' W 117°55'0 0.0
2018-Jul-15 15:30N 33°37' W 117°55'0 0.0
2018-Jul-15 15:00N 33°37' W 117°55'0 0.0
2018-Jul-15 14:30N 33°37' W 117°55'0 0.0
2018-Jul-15 14:00N 33°37' W 117°55'0 0.0
2018-Jul-15 13:31N 33°37' W 117°55'0 0.0
2018-Jul-15 13:00N 33°37' W 117°55'0 0.0
2018-Jul-15 12:30N 33°37' W 117°55'0 0.0
2018-Jul-15 12:00N 33°37' W 117°55'0 0.0
2018-Jul-15 11:30N 33°37' W 117°55'0 0.0
2018-Jul-15 11:00N 33°37' W 117°55'0 0.0
2018-Jul-15 10:30N 33°37' W 117°55'0 0.0
2018-Jul-15 10:00N 33°37' W 117°55'0 0.0
2018-Jul-15 09:30N 33°37' W 117°55'0 0.0
2018-Jul-15 08:59N 33°37' W 117°55'0 0.0
2018-Jul-15 08:30N 33°37' W 117°55'0 0.0
2018-Jul-15 08:00N 33°37' W 117°55'0 0.0
2018-Jul-15 07:30N 33°37' W 117°55'0 0.0
2018-Jul-15 07:00N 33°37' W 117°55'0 0.0
2018-Jul-15 06:30N 33°37' W 117°55'0 0.0
2018-Jul-15 06:00N 33°37' W 117°55'0 0.0
2018-Jul-15 05:30N 33°37' W 117°55'0 0.3
2018-Jul-15 05:00N 33°37' W 117°55'1 1.8
2018-Jul-15 04:30N 33°37' W 117°55'0 1.0
2018-Jul-15 04:00N 33°36' W 117°54'1 2.4
2018-Jul-15 03:30N 33°36' W 117°53'1 2.7
2018-Jul-15 03:00N 33°37' W 117°54'1 2.3
2018-Jul-15 02:30N 33°37' W 117°55'0 0.0
2018-Jul-15 02:00N 33°37' W 117°55'0 0.0
2018-Jul-15 01:30N 33°37' W 117°55'0 0.0
2018-Jul-15 01:00N 33°37' W 117°55'0 0.0
2018-Jul-15 00:30N 33°37' W 117°55'0 0.0
2018-Jul-15 00:00N 33°37' W 117°55'0 0.0
2018-Jul-14 23:30N 33°37' W 117°55'0 0.0
2018-Jul-14 23:00N 33°37' W 117°55'0 0.0
2018-Jul-14 22:30N 33°37' W 117°55'0 0.0
2018-Jul-14 22:00N 33°37' W 117°55'0 0.0
2018-Jul-14 21:30N 33°37' W 117°55'0 0.0
2018-Jul-14 21:00N 33°37' W 117°55'0 0.8
2018-Jul-14 20:29N 33°37' W 117°55'2 3.2
2018-Jul-14 19:56N 33°36' W 117°53'2 2.3
2018-Jul-14 19:13N 33°37' W 117°55'0 1.7
2018-Jul-14 18:56N 33°37' W 117°55'0 0.0
2018-Jul-14 18:30N 33°37' W 117°55'0 0.0
2018-Jul-14 18:00N 33°37' W 117°55'0 0.0
2018-Jul-14 17:28N 33°37' W 117°55'0 0.0
2018-Jul-14 17:00N 33°37' W 117°55'0 0.0
2018-Jul-14 16:30N 33°37' W 117°55'0 0.0
2018-Jul-14 16:00N 33°37' W 117°55'0 0.0
2018-Jul-14 15:30N 33°37' W 117°55'0 0.0
2018-Jul-14 15:00N 33°37' W 117°55'0 0.0
2018-Jul-14 14:30N 33°37' W 117°55'0 0.0
2018-Jul-14 13:30N 33°37' W 117°55'0 0.0
2018-Jul-14 13:00N 33°37' W 117°55'0 0.0
2018-Jul-14 12:30N 33°37' W 117°55'0 0.0
2018-Jul-14 11:59N 33°37' W 117°55'0 0.0
2018-Jul-14 11:30N 33°37' W 117°55'0 0.0
2018-Jul-14 10:59N 33°37' W 117°55'0 0.0
2018-Jul-14 10:30N 33°37' W 117°55'0 0.0
2018-Jul-14 10:00N 33°37' W 117°55'0 0.0
2018-Jul-14 09:30N 33°37' W 117°55'0 0.0
2018-Jul-14 09:00N 33°37' W 117°55'0 0.0
2018-Jul-14 08:30N 33°37' W 117°55'0 0.0
2018-Jul-14 08:00N 33°37' W 117°55'0 0.0
2018-Jul-14 07:30N 33°37' W 117°55'0 0.0
2018-Jul-14 07:00N 33°37' W 117°55'0 0.0
2018-Jul-14 06:30N 33°37' W 117°55'0 0.0
2018-Jul-14 06:00N 33°37' W 117°55'0 0.0
2018-Jul-14 05:30N 33°37' W 117°55'1 1.8
2018-Jul-14 04:52N 33°36' W 117°54'1 0.9
2018-Jul-14 04:10N 33°36' W 117°53'1 3.7
2018-Jul-14 03:59N 33°36' W 117°53'2 2.5
2018-Jul-14 03:03N 33°37' W 117°55'0 2.5
2018-Jul-14 02:55N 33°37' W 117°55'0 0.4
2018-Jul-14 02:30N 33°37' W 117°55'0 0.0
2018-Jul-14 02:00N 33°37' W 117°55'0 0.0
2018-Jul-14 01:31N 33°37' W 117°55'0 0.0
2018-Jul-14 00:59N 33°37' W 117°55'0 0.0
2018-Jul-14 00:30N 33°37' W 117°55'0 0.0
2018-Jul-14 00:00N 33°37' W 117°55'0 0.0
2018-Jul-13 23:30N 33°37' W 117°55'0 0.0
2018-Jul-13 23:00N 33°37' W 117°55'0 0.0
2018-Jul-13 22:30N 33°37' W 117°55'0 0.0
2018-Jul-13 22:00N 33°37' W 117°55'0 0.0
2018-Jul-13 21:30N 33°37' W 117°55'0 0.0
2018-Jul-13 21:00N 33°37' W 117°55'0 0.0
2018-Jul-13 20:30N 33°37' W 117°55'0 0.0
2018-Jul-13 20:00N 33°37' W 117°55'0 0.0
2018-Jul-13 19:30N 33°37' W 117°55'0 0.0
2018-Jul-13 18:59N 33°37' W 117°55'0 0.0
2018-Jul-13 18:30N 33°37' W 117°55'0 0.0
2018-Jul-13 17:59N 33°37' W 117°55'0 0.0
2018-Jul-13 17:30N 33°37' W 117°55'0 0.0
2018-Jul-13 17:00N 33°37' W 117°55'0 0.0
2018-Jul-13 16:28N 33°37' W 117°55'0 0.0
2018-Jul-13 16:00N 33°37' W 117°55'0 0.0
2018-Jul-13 15:29N 33°37' W 117°55'0 0.0
2018-Jul-13 14:59N 33°37' W 117°55'0 0.0
2018-Jul-13 14:00N 33°37' W 117°55'  
Track history (hours):
 
Tides and Currents Weather Stations Pressure Air Temp Water Temp Dewpoint Dewpoint Depression Visibility Wind Speed Wind Dir Waves Ship Positions

EndleSS Dreams

Owner: Charter Memories, Newport Beach, CA. More information available from US FCC via Universal Licensing System and Coast Guard Vessel Documentation Center.

Last reported at 2018-Jul-23 13:30 UTC. Time now 2018-Jul-23 13:53 UTC.
Position N 33°46' W 118°12'.

Length 47 m; draft 3 m.

Type: Ship (hazmat cat D). MMSI: 366872980.

Date/timePositionNaut miles runAvg speedWind from/ knotsBaromVisibWave heightAir tempDewpointWater temp
2018-Jul-23 13:30N 33°46' W 118°12'0 0.0
2018-Jul-23 13:00N 33°46' W 118°12'0 0.0
2018-Jul-23 12:30N 33°46' W 118°12'0 0.0
2018-Jul-23 12:00N 33°46' W 118°12'0 0.0
2018-Jul-23 11:30N 33°46' W 118°12'0 0.0
2018-Jul-23 11:00N 33°46' W 118°12'0 0.0
2018-Jul-23 10:30N 33°46' W 118°12'0 0.0
2018-Jul-23 10:00N 33°46' W 118°12'0 0.0
2018-Jul-23 09:30N 33°46' W 118°12'0 0.0
2018-Jul-23 09:00N 33°46' W 118°12'0 0.0
2018-Jul-23 08:30N 33°46' W 118°12'0 0.0
2018-Jul-23 08:00N 33°46' W 118°12'0 0.0
2018-Jul-23 07:30N 33°46' W 118°12'0 0.0
2018-Jul-23 07:00N 33°46' W 118°12'0 0.0
2018-Jul-23 06:30N 33°46' W 118°12'0 0.0
2018-Jul-23 06:00N 33°46' W 118°12'0 0.0
2018-Jul-23 05:30N 33°46' W 118°12'0 0.0
2018-Jul-23 05:00N 33°46' W 118°12'0 0.0
2018-Jul-23 04:30N 33°46' W 118°12'0 0.3
2018-Jul-23 04:00N 33°46' W 118°12'0 0.8
2018-Jul-23 03:30N 33°45' W 118°11'2 3.3
2018-Jul-23 03:00N 33°45' W 118°09'3 5.0
2018-Jul-23 02:30N 33°44' W 118°12'2 4.4
2018-Jul-23 02:00N 33°45' W 118°10'1 2.5
2018-Jul-23 01:30N 33°46' W 118°12'0 0.0
2018-Jul-23 01:00N 33°46' W 118°12'0 0.0
2018-Jul-23 00:30N 33°46' W 118°12'0 0.0
2018-Jul-23 00:00N 33°46' W 118°12'0 0.0
2018-Jul-22 23:30N 33°46' W 118°12'0 0.0
2018-Jul-22 23:00N 33°46' W 118°12'0 0.0
2018-Jul-22 22:30N 33°46' W 118°12'0 0.0
2018-Jul-22 22:00N 33°46' W 118°12'0 0.0
2018-Jul-22 21:30N 33°46' W 118°12'0 0.0
2018-Jul-22 21:00N 33°46' W 118°12'0 0.0
2018-Jul-22 20:30N 33°46' W 118°12'0 0.0
2018-Jul-22 20:00N 33°46' W 118°12'0 0.0
2018-Jul-22 19:30N 33°46' W 118°12'0 0.0
2018-Jul-22 19:00N 33°46' W 118°12'0 0.0
2018-Jul-22 18:30N 33°46' W 118°12'0 0.0
2018-Jul-22 18:00N 33°46' W 118°12'0 0.0
2018-Jul-22 17:30N 33°46' W 118°12'0 0.0
2018-Jul-22 17:00N 33°46' W 118°12'1 2.2
2018-Jul-22 16:30N 33°45' W 118°10'4 8.9
2018-Jul-22 16:00N 33°42' W 118°06'9 8.6
2018-Jul-22 15:00N 33°37' W 117°58'4 8.6
2018-Jul-22 14:30N 33°35' W 117°54'2 3.2
2018-Jul-22 14:00N 33°36' W 117°54'1 2.5
2018-Jul-22 13:30N 33°37' W 117°55'0 0.0
2018-Jul-22 13:00N 33°37' W 117°55'0 0.0
2018-Jul-22 12:30N 33°37' W 117°55'0 0.0
2018-Jul-22 12:00N 33°37' W 117°55'0 0.0
2018-Jul-22 11:30N 33°37' W 117°55'0 0.0
2018-Jul-22 11:00N 33°37' W 117°55'0 0.0
2018-Jul-22 10:30N 33°37' W 117°55'0 0.0
2018-Jul-22 10:00N 33°37' W 117°55'0 0.0
2018-Jul-22 09:30N 33°37' W 117°55'0 0.0
2018-Jul-22 09:00N 33°37' W 117°55'0 0.0
2018-Jul-22 08:30N 33°37' W 117°55'0 0.0
2018-Jul-22 08:00N 33°37' W 117°55'0 0.0
2018-Jul-22 07:30N 33°37' W 117°55'0 0.0
2018-Jul-22 07:00N 33°37' W 117°55'0 0.0
2018-Jul-22 06:30N 33°37' W 117°55'0 0.0
2018-Jul-22 06:00N 33°37' W 117°55'0 0.6
2018-Jul-22 05:30N 33°37' W 117°55'1 1.1
2018-Jul-22 05:00N 33°37' W 117°56'2 3.1
2018-Jul-22 04:30N 33°36' W 117°54'1 2.3
2018-Jul-22 04:00N 33°36' W 117°53'1 2.7
2018-Jul-22 03:29N 33°37' W 117°54'1 1.8
2018-Jul-22 02:53N 33°37' W 117°55'1 3.9
2018-Jul-22 02:30N 33°36' W 117°54'1 1.8
2018-Jul-22 02:00N 33°36' W 117°53'2 4.0
2018-Jul-22 01:30N 33°37' W 117°55'0 0.7
2018-Jul-22 01:00N 33°37' W 117°55'0 0.0
2018-Jul-22 00:30N 33°37' W 117°55'0 0.0
2018-Jul-22 00:00N 33°37' W 117°55'0 0.0
2018-Jul-21 23:30N 33°37' W 117°55'0 0.0
2018-Jul-21 23:00N 33°37' W 117°55'0 0.0
2018-Jul-21 22:30N 33°37' W 117°55'0 0.0
2018-Jul-21 22:00N 33°37' W 117°55'0 0.0
2018-Jul-21 21:30N 33°37' W 117°55'0 0.0
2018-Jul-21 21:00N 33°37' W 117°55'0 1.0
2018-Jul-21 20:30N 33°37' W 117°55'2 2.8
2018-Jul-21 19:49N 33°36' W 117°53'2 3.6
2018-Jul-21 19:16N 33°37' W 117°55'0 1.7
2018-Jul-21 19:00N 33°37' W 117°55'0 0.0
2018-Jul-21 18:30N 33°37' W 117°55'0 0.0
2018-Jul-21 18:00N 33°37' W 117°55'0 0.0
2018-Jul-21 17:30N 33°37' W 117°55'0 0.0
2018-Jul-21 17:00N 33°37' W 117°55'0 0.0
2018-Jul-21 16:30N 33°37' W 117°55'0 0.0
2018-Jul-21 16:00N 33°37' W 117°55'0 0.0
2018-Jul-21 15:30N 33°37' W 117°55'0 0.0
2018-Jul-21 15:00N 33°37' W 117°55'0 0.0
2018-Jul-21 14:30N 33°37' W 117°55'0 0.0
2018-Jul-21 13:30N 33°37' W 117°55'0 0.0
2018-Jul-21 13:00N 33°37' W 117°55'0 0.0
2018-Jul-21 12:30N 33°37' W 117°55'0 0.0
2018-Jul-21 12:00N 33°37' W 117°55'0 0.0
2018-Jul-21 11:30N 33°37' W 117°55'0 0.0
2018-Jul-21 11:00N 33°37' W 117°55'0 0.0
2018-Jul-21 10:30N 33°37' W 117°55'0 0.0
2018-Jul-21 10:00N 33°37' W 117°55'0 0.0
2018-Jul-21 09:30N 33°37' W 117°55'0 0.0
2018-Jul-21 09:00N 33°37' W 117°55'0 0.0
2018-Jul-21 08:30N 33°37' W 117°55'0 0.0
2018-Jul-21 08:00N 33°37' W 117°55'0 0.0
2018-Jul-21 07:30N 33°37' W 117°55'0 0.0
2018-Jul-21 07:00N 33°37' W 117°55'0 0.0
2018-Jul-21 06:31N 33°37' W 117°55'0 0.0
2018-Jul-21 06:00N 33°37' W 117°55'0 0.1
2018-Jul-21 05:28N 33°37' W 117°55'1 2.3
2018-Jul-21 05:00N 33°37' W 117°54'0 0.3
2018-Jul-21 04:30N 33°37' W 117°54'1 1.5
2018-Jul-21 03:52N 33°36' W 117°53'0 1.3
2018-Jul-21 03:30N 33°36' W 117°53'1 1.4
2018-Jul-21 03:00N 33°36' W 117°54'2 3.4
2018-Jul-21 02:30N 33°37' W 117°55'0 0.0
2018-Jul-21 02:01N 33°37' W 117°55'0 0.0
2018-Jul-21 01:30N 33°37' W 117°55'0 0.0
2018-Jul-21 01:00N 33°37' W 117°55'0 0.0
2018-Jul-21 00:31N 33°37' W 117°55'0 0.0
2018-Jul-21 00:00N 33°37' W 117°55'0 0.0
2018-Jul-20 23:30N 33°37' W 117°55'0 0.0
2018-Jul-20 23:00N 33°37' W 117°55'0 0.0
2018-Jul-20 22:30N 33°37' W 117°55'0 0.0
2018-Jul-20 22:00N 33°37' W 117°55'0 0.0
2018-Jul-20 21:30N 33°37' W 117°55'0 0.0
2018-Jul-20 21:00N 33°37' W 117°55'0 0.0
2018-Jul-20 20:30N 33°37' W 117°55'0 0.0
2018-Jul-20 20:00N 33°37' W 117°55'0 0.0
2018-Jul-20 19:30N 33°37' W 117°55'0 0.0
2018-Jul-20 19:00N 33°37' W 117°55'0 0.0
2018-Jul-20 18:30N 33°37' W 117°55'0 0.0
2018-Jul-20 18:00N 33°37' W 117°55'0 0.0
2018-Jul-20 17:30N 33°37' W 117°55'0 0.0
2018-Jul-20 17:00N 33°37' W 117°55'0 0.0
2018-Jul-20 16:30N 33°37' W 117°55'0 0.0
2018-Jul-20 16:00N 33°37' W 117°55'0 0.0
2018-Jul-20 15:30N 33°37' W 117°55'0 0.0
2018-Jul-20 15:00N 33°37' W 117°55'0 0.0
2018-Jul-20 14:30N 33°37' W 117°55'0 0.0
2018-Jul-20 14:00N 33°37' W 117°55'0 0.0
2018-Jul-20 13:30N 33°37' W 117°55'0 0.0
2018-Jul-20 13:00N 33°37' W 117°55'0 0.0
2018-Jul-20 12:30N 33°37' W 117°55'0 0.0
2018-Jul-20 11:59N 33°37' W 117°55'0 0.0
2018-Jul-20 11:28N 33°37' W 117°55'0 0.0
2018-Jul-20 11:00N 33°37' W 117°55'0 0.0
2018-Jul-20 10:30N 33°37' W 117°55'0 0.0
2018-Jul-20 10:00N 33°37' W 117°55'0 0.0
2018-Jul-20 09:30N 33°37' W 117°55'0 0.0
2018-Jul-20 09:00N 33°37' W 117°55'0 0.0
2018-Jul-20 08:30N 33°37' W 117°55'0 0.0
2018-Jul-20 08:00N 33°37' W 117°55'0 0.0
2018-Jul-20 07:30N 33°37' W 117°55'0 0.0
2018-Jul-20 07:00N 33°37' W 117°55'0 0.0
2018-Jul-20 06:30N 33°37' W 117°55'0 0.0
2018-Jul-20 06:00N 33°37' W 117°55'0 0.0
2018-Jul-20 05:30N 33°37' W 117°55'0 0.0
2018-Jul-20 04:59N 33°37' W 117°55'0 0.0
2018-Jul-20 04:30N 33°37' W 117°55'0 0.0
2018-Jul-20 04:00N 33°37' W 117°55'0 0.0
2018-Jul-20 03:29N 33°37' W 117°55'0 0.0
2018-Jul-20 02:59N 33°37' W 117°55'2 2.8
2018-Jul-20 02:07N 33°36' W 117°53'0 3.2
2018-Jul-20 02:00N 33°36' W 117°53'2 2.9
2018-Jul-20 01:25N 33°37' W 117°54'1 2.4
2018-Jul-20 01:00N 33°37' W 117°55'0 0.0
2018-Jul-20 00:30N 33°37' W 117°55'0 0.0
2018-Jul-19 23:59N 33°37' W 117°55'0 0.0
2018-Jul-19 23:30N 33°37' W 117°55'0 0.0
2018-Jul-19 23:00N 33°37' W 117°55'0 0.0
2018-Jul-19 22:30N 33°37' W 117°55'0 0.0
2018-Jul-19 22:00N 33°37' W 117°55'0 0.0
2018-Jul-19 21:30N 33°37' W 117°55'0 0.0
2018-Jul-19 21:00N 33°37' W 117°55'0 0.0
2018-Jul-19 20:30N 33°37' W 117°55'0 0.0
2018-Jul-19 20:00N 33°37' W 117°55'0 0.0
2018-Jul-19 19:30N 33°37' W 117°55'0 0.0
2018-Jul-19 19:00N 33°37' W 117°55'0 0.0
2018-Jul-19 18:28N 33°37' W 117°55'0 0.0
2018-Jul-19 17:59N 33°37' W 117°55'0 0.0
2018-Jul-19 17:30N 33°37' W 117°55'0 0.0
2018-Jul-19 17:00N 33°37' W 117°55'0 0.0
2018-Jul-19 16:31N 33°37' W 117°55'0 0.0
2018-Jul-19 15:58N 33°37' W 117°55'0 0.0
2018-Jul-19 15:30N 33°37' W 117°55'0 0.0
2018-Jul-19 15:00N 33°37' W 117°55'0 0.0
2018-Jul-19 14:00N 33°37' W 117°55'0 0.0
2018-Jul-19 13:29N 33°37' W 117°55'0 0.0
2018-Jul-19 13:00N 33°37' W 117°55'0 0.0
2018-Jul-19 12:30N 33°37' W 117°55'0 0.0
2018-Jul-19 12:00N 33°37' W 117°55'0 0.0
2018-Jul-19 11:30N 33°37' W 117°55'0 0.0
2018-Jul-19 11:00N 33°37' W 117°55'0 0.0
2018-Jul-19 10:30N 33°37' W 117°55'0 0.0
2018-Jul-19 10:00N 33°37' W 117°55'0 0.0
2018-Jul-19 09:30N 33°37' W 117°55'0 0.0
2018-Jul-19 09:00N 33°37' W 117°55'0 0.0
2018-Jul-19 08:30N 33°37' W 117°55'0 0.0
2018-Jul-19 08:00N 33°37' W 117°55'0 0.0
2018-Jul-19 07:30N 33°37' W 117°55'0 0.0
2018-Jul-19 07:00N 33°37' W 117°55'0 0.0
2018-Jul-19 06:29N 33°37' W 117°55'0 0.0
2018-Jul-19 06:00N 33°37' W 117°55'0 0.0
2018-Jul-19 05:30N 33°37' W 117°55'0 0.0
2018-Jul-19 05:00N 33°37' W 117°55'0 0.0
2018-Jul-19 04:29N 33°37' W 117°55'0 0.0
2018-Jul-19 03:59N 33°37' W 117°55'0 0.0
2018-Jul-19 03:26N 33°37' W 117°55'0 0.0
2018-Jul-19 03:00N 33°37' W 117°55'0 0.0
2018-Jul-19 02:30N 33°37' W 117°55'0 0.0
2018-Jul-19 02:00N 33°37' W 117°55'0 0.0
2018-Jul-19 01:30N 33°37' W 117°55'0 0.0
2018-Jul-19 01:00N 33°37' W 117°55'0 0.0
2018-Jul-19 00:30N 33°37' W 117°55'0 0.0
2018-Jul-19 00:00N 33°37' W 117°55'0 0.0
2018-Jul-18 23:30N 33°37' W 117°55'0 0.0
2018-Jul-18 23:00N 33°37' W 117°55'0 0.0
2018-Jul-18 22:30N 33°37' W 117°55'0 0.0
2018-Jul-18 22:00N 33°37' W 117°55'0 0.0
2018-Jul-18 21:30N 33°37' W 117°55'0 0.0
2018-Jul-18 21:00N 33°37' W 117°55'0 0.0
2018-Jul-18 20:30N 33°37' W 117°55'0 0.0
2018-Jul-18 20:00N 33°37' W 117°55'0 0.0
2018-Jul-18 19:30N 33°37' W 117°55'0 0.0
2018-Jul-18 19:00N 33°37' W 117°55'0 0.0
2018-Jul-18 18:30N 33°37' W 117°55'0 0.0
2018-Jul-18 17:59N 33°37' W 117°55'0 0.0
2018-Jul-18 17:30N 33°37' W 117°55'0 0.0
2018-Jul-18 17:00N 33°37' W 117°55'0 0.0
2018-Jul-18 16:30N 33°37' W 117°55'0 0.0
2018-Jul-18 16:00N 33°37' W 117°55'0 0.0
2018-Jul-18 15:30N 33°37' W 117°55'0 0.0
2018-Jul-18 15:00N 33°37' W 117°55'0 0.0
2018-Jul-18 14:30N 33°37' W 117°55'0 0.0
2018-Jul-18 13:30N 33°37' W 117°55'0 0.0
2018-Jul-18 13:00N 33°37' W 117°55'0 0.0
2018-Jul-18 12:30N 33°37' W 117°55'0 0.0
2018-Jul-18 12:00N 33°37' W 117°55'0 0.0
2018-Jul-18 11:30N 33°37' W 117°55'0 0.0
2018-Jul-18 10:30N 33°37' W 117°55'0 0.0
2018-Jul-18 10:00N 33°37' W 117°55'0 0.0
2018-Jul-18 09:30N 33°37' W 117°55'0 0.0
2018-Jul-18 09:00N 33°37' W 117°55'0 0.0
2018-Jul-18 08:30N 33°37' W 117°55'0 0.0
2018-Jul-18 08:00N 33°37' W 117°55'0 0.0
2018-Jul-18 07:29N 33°37' W 117°55'0 0.0
2018-Jul-18 07:00N 33°37' W 117°55'0 0.0
2018-Jul-18 06:30N 33°37' W 117°55'0 0.0
2018-Jul-18 06:00N 33°37' W 117°55'0 0.0
2018-Jul-18 05:30N 33°37' W 117°55'0 0.0
2018-Jul-18 05:00N 33°37' W 117°55'0 0.0
2018-Jul-18 04:29N 33°37' W 117°55'0 0.0
2018-Jul-18 04:00N 33°37' W 117°55'0 0.0
2018-Jul-18 03:30N 33°37' W 117°55'0 0.0
2018-Jul-18 03:00N 33°37' W 117°55'0 0.0
2018-Jul-18 02:30N 33°37' W 117°55'0 0.0
2018-Jul-18 02:00N 33°37' W 117°55'0 0.0
2018-Jul-18 01:30N 33°37' W 117°55'0 0.0
2018-Jul-18 00:59N 33°37' W 117°55'0 0.0
2018-Jul-18 00:30N 33°37' W 117°55'0 0.0
2018-Jul-18 00:00N 33°37' W 117°55'0 0.0
2018-Jul-17 23:30N 33°37' W 117°55'0 0.0
2018-Jul-17 23:00N 33°37' W 117°55'0 0.0
2018-Jul-17 22:30N 33°37' W 117°55'0 0.0
2018-Jul-17 22:00N 33°37' W 117°55'0 0.0
2018-Jul-17 21:27N 33°37' W 117°55'0 0.0
2018-Jul-17 21:00N 33°37' W 117°55'0 0.0
2018-Jul-17 20:30N 33°37' W 117°55'0 0.0
2018-Jul-17 20:00N 33°37' W 117°55'0 0.0
2018-Jul-17 19:30N 33°37' W 117°55'0 0.0
2018-Jul-17 19:00N 33°37' W 117°55'0 0.0
2018-Jul-17 18:30N 33°37' W 117°55'0 0.0
2018-Jul-17 18:00N 33°37' W 117°55'0 0.0
2018-Jul-17 17:29N 33°37' W 117°55'0 0.0
2018-Jul-17 17:00N 33°37' W 117°55'0 0.0
2018-Jul-17 16:30N 33°37' W 117°55'0 0.0
2018-Jul-17 16:00N 33°37' W 117°55'0 0.0
2018-Jul-17 15:28N 33°37' W 117°55'0 0.0
2018-Jul-17 15:00N 33°37' W 117°55'0 0.0
2018-Jul-17 14:30N 33°37' W 117°55'0 0.0
2018-Jul-17 14:00N 33°37' W 117°55'0 0.0
2018-Jul-17 13:30N 33°37' W 117°55'0 0.0
2018-Jul-17 13:00N 33°37' W 117°55'0 0.0
2018-Jul-17 12:30N 33°37' W 117°55'0 0.0
2018-Jul-17 12:00N 33°37' W 117°55'0 0.0
2018-Jul-17 11:30N 33°37' W 117°55'0 0.0
2018-Jul-17 11:00N 33°37' W 117°55'0 0.0
2018-Jul-17 10:30N 33°37' W 117°55'0 0.0
2018-Jul-17 10:00N 33°37' W 117°55'0 0.0
2018-Jul-17 09:30N 33°37' W 117°55'0 0.0
2018-Jul-17 09:00N 33°37' W 117°55'0 0.0
2018-Jul-17 08:30N 33°37' W 117°55'0 0.0
2018-Jul-17 08:00N 33°37' W 117°55'0 0.0
2018-Jul-17 07:30N 33°37' W 117°55'0 0.0
2018-Jul-17 07:00N 33°37' W 117°55'0 0.0
2018-Jul-17 06:30N 33°37' W 117°55'0 0.0
2018-Jul-17 06:00N 33°37' W 117°55'0 0.0
2018-Jul-17 05:30N 33°37' W 117°55'0 0.0
2018-Jul-17 05:00N 33°37' W 117°55'0 0.0
2018-Jul-17 04:30N 33°37' W 117°55'0 0.0
2018-Jul-17 04:00N 33°37' W 117°55'0 0.0
2018-Jul-17 03:30N 33°37' W 117°55'0 0.0
2018-Jul-17 03:00N 33°37' W 117°55'0 0.0
2018-Jul-17 02:30N 33°37' W 117°55'0 0.0
2018-Jul-17 01:59N 33°37' W 117°55'0 0.0
2018-Jul-17 01:30N 33°37' W 117°55'0 0.0
2018-Jul-17 01:00N 33°37' W 117°55'0 0.0
2018-Jul-17 00:30N 33°37' W 117°55'0 0.0
2018-Jul-16 23:29N 33°37' W 117°55'0 0.0
2018-Jul-16 23:00N 33°37' W 117°55'0 0.0
2018-Jul-16 22:30N 33°37' W 117°55'0 0.0
2018-Jul-16 22:00N 33°37' W 117°55'0 0.0
2018-Jul-16 21:30N 33°37' W 117°55'0 0.0
2018-Jul-16 21:00N 33°37' W 117°55'0 0.0
2018-Jul-16 20:30N 33°37' W 117°55'0 0.0
2018-Jul-16 19:58N 33°37' W 117°55'0 0.0
2018-Jul-16 19:30N 33°37' W 117°55'0 0.0
2018-Jul-16 19:00N 33°37' W 117°55'0 0.0
2018-Jul-16 18:30N 33°37' W 117°55'0 0.0
2018-Jul-16 16:27N 33°37' W 117°55'0 0.0
2018-Jul-16 16:00N 33°37' W 117°55'0 0.0
2018-Jul-16 15:30N 33°37' W 117°55'0 0.0
2018-Jul-16 15:00N 33°37' W 117°55'0 0.0
2018-Jul-16 14:30N 33°37' W 117°55'0 0.0
2018-Jul-16 14:00N 33°37' W 117°55'0 0.0
2018-Jul-16 13:30N 33°37' W 117°55'0 0.0
2018-Jul-16 13:00N 33°37' W 117°55'0 0.0
2018-Jul-16 12:30N 33°37' W 117°55'0 0.0
2018-Jul-16 12:00N 33°37' W 117°55'0 0.0
2018-Jul-16 11:30N 33°37' W 117°55'0 0.0
2018-Jul-16 11:00N 33°37' W 117°55'0 0.0
2018-Jul-16 10:31N 33°37' W 117°55'0 0.0
2018-Jul-16 10:00N 33°37' W 117°55'0 0.0
2018-Jul-16 09:30N 33°37' W 117°55'0 0.0
2018-Jul-16 09:00N 33°37' W 117°55'0 0.0
2018-Jul-16 08:29N 33°37' W 117°55'0 0.0
2018-Jul-16 08:00N 33°37' W 117°55'0 0.0
2018-Jul-16 07:30N 33°37' W 117°55'0 0.0
2018-Jul-16 07:00N 33°37' W 117°55'0 0.0
2018-Jul-16 06:28N 33°37' W 117°55'0 0.0
2018-Jul-16 06:00N 33°37' W 117°55'0 0.0
2018-Jul-16 05:30N 33°37' W 117°55'0 0.0
2018-Jul-16 05:00N 33°37' W 117°55'0 0.0
2018-Jul-16 04:30N 33°37' W 117°55'0 0.0
2018-Jul-16 04:00N 33°37' W 117°55'0 0.0
2018-Jul-16 03:30N 33°37' W 117°55'0 0.0
2018-Jul-16 03:01N 33°37' W 117°55'0 0.0
2018-Jul-16 02:30N 33°37' W 117°55'0 0.0
2018-Jul-16 02:00N 33°37' W 117°55'0 0.0
2018-Jul-16 01:30N 33°37' W 117°55'0 0.0
2018-Jul-16 01:00N 33°37' W 117°55'0 0.0
2018-Jul-16 00:30N 33°37' W 117°55'0 0.0
2018-Jul-16 00:00N 33°37' W 117°55'0 0.0
2018-Jul-15 23:30N 33°37' W 117°55'0 0.0
2018-Jul-15 23:00N 33°37' W 117°55'0 0.0
2018-Jul-15 22:30N 33°37' W 117°55'0 0.0
2018-Jul-15 22:00N 33°37' W 117°55'0 0.0
2018-Jul-15 21:30N 33°37' W 117°55'0 0.0
2018-Jul-15 21:00N 33°37' W 117°55'0 0.7
2018-Jul-15 20:30N 33°37' W 117°55'2 2.1
2018-Jul-15 19:40N 33°36' W 117°53'1 3.6
2018-Jul-15 19:29N 33°36' W 117°54'1 2.6
2018-Jul-15 18:58N 33°37' W 117°55'0 0.0
2018-Jul-15 18:30N 33°37' W 117°55'0 0.0
2018-Jul-15 17:59N 33°37' W 117°55'0 0.0
2018-Jul-15 17:30N 33°37' W 117°55'0 0.0
2018-Jul-15 17:00N 33°37' W 117°55'0 0.0
2018-Jul-15 16:27N 33°37' W 117°55'0 0.0
2018-Jul-15 16:00N 33°37' W 117°55'0 0.0
2018-Jul-15 15:30N 33°37' W 117°55'0 0.0
2018-Jul-15 15:00N 33°37' W 117°55'0 0.0
2018-Jul-15 14:30N 33°37' W 117°55'0 0.0
2018-Jul-15 14:00N 33°37' W 117°55'0 0.0
2018-Jul-15 13:31N 33°37' W 117°55'0 0.0
2018-Jul-15 13:00N 33°37' W 117°55'0 0.0
2018-Jul-15 12:30N 33°37' W 117°55'0 0.0
2018-Jul-15 12:00N 33°37' W 117°55'0 0.0
2018-Jul-15 11:30N 33°37' W 117°55'0 0.0
2018-Jul-15 11:00N 33°37' W 117°55'0 0.0
2018-Jul-15 10:30N 33°37' W 117°55'0 0.0
2018-Jul-15 10:00N 33°37' W 117°55'0 0.0
2018-Jul-15 09:30N 33°37' W 117°55'0 0.0
2018-Jul-15 08:59N 33°37' W 117°55'0 0.0
2018-Jul-15 08:30N 33°37' W 117°55'0 0.0
2018-Jul-15 08:00N 33°37' W 117°55'0 0.0
2018-Jul-15 07:30N 33°37' W 117°55'0 0.0
2018-Jul-15 07:00N 33°37' W 117°55'0 0.0
2018-Jul-15 06:30N 33°37' W 117°55'0 0.0
2018-Jul-15 06:00N 33°37' W 117°55'0 0.0
2018-Jul-15 05:30N 33°37' W 117°55'0 0.3
2018-Jul-15 05:00N 33°37' W 117°55'1 1.8
2018-Jul-15 04:30N 33°37' W 117°55'0 1.0
2018-Jul-15 04:00N 33°36' W 117°54'1 2.4
2018-Jul-15 03:30N 33°36' W 117°53'1 2.7
2018-Jul-15 03:00N 33°37' W 117°54'1 2.3
2018-Jul-15 02:30N 33°37' W 117°55'0 0.0
2018-Jul-15 02:00N 33°37' W 117°55'0 0.0
2018-Jul-15 01:30N 33°37' W 117°55'0 0.0
2018-Jul-15 01:00N 33°37' W 117°55'0 0.0
2018-Jul-15 00:30N 33°37' W 117°55'0 0.0
2018-Jul-15 00:00N 33°37' W 117°55'0 0.0
2018-Jul-14 23:30N 33°37' W 117°55'0 0.0
2018-Jul-14 23:00N 33°37' W 117°55'0 0.0
2018-Jul-14 22:30N 33°37' W 117°55'0 0.0
2018-Jul-14 22:00N 33°37' W 117°55'0 0.0
2018-Jul-14 21:30N 33°37' W 117°55'0 0.0
2018-Jul-14 21:00N 33°37' W 117°55'0 0.8
2018-Jul-14 20:29N 33°37' W 117°55'2 3.2
2018-Jul-14 19:56N 33°36' W 117°53'2 2.3
2018-Jul-14 19:13N 33°37' W 117°55'0 1.7
2018-Jul-14 18:56N 33°37' W 117°55'0 0.0
2018-Jul-14 18:30N 33°37' W 117°55'0 0.0
2018-Jul-14 18:00N 33°37' W 117°55'0 0.0
2018-Jul-14 17:28N 33°37' W 117°55'0 0.0
2018-Jul-14 17:00N 33°37' W 117°55'0 0.0
2018-Jul-14 16:30N 33°37' W 117°55'0 0.0
2018-Jul-14 16:00N 33°37' W 117°55'0 0.0
2018-Jul-14 15:30N 33°37' W 117°55'0 0.0
2018-Jul-14 15:00N 33°37' W 117°55'0 0.0
2018-Jul-14 14:30N 33°37' W 117°55'0 0.0
2018-Jul-14 13:30N 33°37' W 117°55'0 0.0
2018-Jul-14 13:00N 33°37' W 117°55'0 0.0
2018-Jul-14 12:30N 33°37' W 117°55'0 0.0
2018-Jul-14 11:59N 33°37' W 117°55'0 0.0
2018-Jul-14 11:30N 33°37' W 117°55'0 0.0
2018-Jul-14 10:59N 33°37' W 117°55'0 0.0
2018-Jul-14 10:30N 33°37' W 117°55'0 0.0
2018-Jul-14 10:00N 33°37' W 117°55'0 0.0
2018-Jul-14 09:30N 33°37' W 117°55'0 0.0
2018-Jul-14 09:00N 33°37' W 117°55'0 0.0
2018-Jul-14 08:30N 33°37' W 117°55'0 0.0
2018-Jul-14 08:00N 33°37' W 117°55'0 0.0
2018-Jul-14 07:30N 33°37' W 117°55'0 0.0
2018-Jul-14 07:00N 33°37' W 117°55'0 0.0
2018-Jul-14 06:30N 33°37' W 117°55'0 0.0
2018-Jul-14 06:00N 33°37' W 117°55'0 0.0
2018-Jul-14 05:30N 33°37' W 117°55'1 1.8
2018-Jul-14 04:52N 33°36' W 117°54'1 0.9
2018-Jul-14 04:10N 33°36' W 117°53'1 3.7
2018-Jul-14 03:59N 33°36' W 117°53'2 2.5
2018-Jul-14 03:03N 33°37' W 117°55'0 2.5
2018-Jul-14 02:55N 33°37' W 117°55'0 0.4
2018-Jul-14 02:30N 33°37' W 117°55'0 0.0
2018-Jul-14 02:00N 33°37' W 117°55'0 0.0
2018-Jul-14 01:31N 33°37' W 117°55'0 0.0
2018-Jul-14 00:59N 33°37' W 117°55'0 0.0
2018-Jul-14 00:30N 33°37' W 117°55'0 0.0
2018-Jul-14 00:00N 33°37' W 117°55'0 0.0
2018-Jul-13 23:30N 33°37' W 117°55'0 0.0
2018-Jul-13 23:00N 33°37' W 117°55'0 0.0
2018-Jul-13 22:30N 33°37' W 117°55'0 0.0
2018-Jul-13 22:00N 33°37' W 117°55'0 0.0
2018-Jul-13 21:30N 33°37' W 117°55'0 0.0
2018-Jul-13 21:00N 33°37' W 117°55'0 0.0
2018-Jul-13 20:30N 33°37' W 117°55'0 0.0
2018-Jul-13 20:00N 33°37' W 117°55'0 0.0
2018-Jul-13 19:30N 33°37' W 117°55'0 0.0
2018-Jul-13 18:59N 33°37' W 117°55'0 0.0
2018-Jul-13 18:30N 33°37' W 117°55'0 0.0
2018-Jul-13 17:59N 33°37' W 117°55'0 0.0
2018-Jul-13 17:30N 33°37' W 117°55'0 0.0
2018-Jul-13 17:00N 33°37' W 117°55'0 0.0
2018-Jul-13 16:28N 33°37' W 117°55'0 0.0
2018-Jul-13 16:00N 33°37' W 117°55'0 0.0
2018-Jul-13 15:29N 33°37' W 117°55'0 0.0
2018-Jul-13 14:59N 33°37' W 117°55'0 0.0
2018-Jul-13 14:00N 33°37' W 117°55'  

Dump ship's entire track history